Time;durP1;ratioP1;P1;durP2;ratioP2;P2;SDS_P1;SDS_P2;PMS_P1;PMS_P2;Temp;Humidity;BMP_temperature;BMP_pressure;BME280_temperature;BME280_humidity;BME280_pressure;Samples;Min_cycle;Max_cycle;Signal;HPM_P1;HPM_P2
2023/06/26 00:01:41;;;;;;;3.65;0.70;;;16.10;99.90;;;;;;5014596;28;20195;-75
2023/06/26 00:04:14;;;;;;;0.80;0.40;;;16.20;99.90;;;;;;5016045;28;20195;-75
2023/06/26 00:06:45;;;;;;;0.95;0.40;;;16.30;99.90;;;;;;5015727;28;20310;-75
2023/06/26 00:09:17;;;;;;;0.95;0.30;;;16.40;99.90;;;;;;5016671;28;20638;-75
2023/06/26 00:11:48;;;;;;;1.35;0.30;;;16.50;99.90;;;;;;5014710;28;20203;-75
2023/06/26 00:14:20;;;;;;;1.15;0.40;;;16.50;99.90;;;;;;5011622;28;20192;-76
2023/06/26 00:16:51;;;;;;;2.40;0.43;;;16.60;99.90;;;;;;5015616;28;20195;-74
2023/06/26 00:19:22;;;;;;;2.05;0.60;;;16.70;99.90;;;;;;5015708;28;20191;-76
2023/06/26 00:21:53;;;;;;;0.88;0.40;;;16.70;99.90;;;;;;5015131;28;20198;-74
2023/06/26 00:24:26;;;;;;;1.83;0.60;;;16.80;99.90;;;;;;5008444;28;20191;-75
2023/06/26 00:26:56;;;;;;;1.92;0.40;;;16.80;99.90;;;;;;4995823;28;20338;-75
2023/06/26 00:29:27;;;;;;;3.00;0.60;;;16.90;99.90;;;;;;4995936;28;20203;-75
2023/06/26 00:31:58;;;;;;;2.70;0.60;;;17.00;99.90;;;;;;4998195;28;20196;-76
2023/06/26 00:34:29;;;;;;;0.55;0.40;;;17.00;99.90;;;;;;5015388;28;20561;-77
2023/06/26 00:36:59;;;;;;;1.60;0.60;;;17.10;99.90;;;;;;5014974;28;20668;-75
2023/06/26 00:39:33;;;;;;;1.52;0.47;;;17.20;99.90;;;;;;5015110;28;20643;-77
2023/06/26 00:42:04;;;;;;;2.75;0.80;;;17.30;99.90;;;;;;5015288;28;20187;-80
2023/06/26 00:44:35;;;;;;;1.92;0.60;;;17.30;99.90;;;;;;5012763;28;20203;-76
2023/06/26 00:47:05;;;;;;;1.40;0.50;;;17.40;99.90;;;;;;5014950;28;20446;-77
2023/06/26 00:49:36;;;;;;;1.30;0.30;;;17.50;99.90;;;;;;5015070;28;20286;-76
2023/06/26 00:52:08;;;;;;;1.50;0.30;;;17.50;99.90;;;;;;5010809;28;20205;-76
2023/06/26 00:54:41;;;;;;;1.85;0.50;;;17.50;99.90;;;;;;5011021;28;20249;-75
2023/06/26 00:57:12;;;;;;;0.55;0.25;;;17.60;99.90;;;;;;4995280;28;20556;-74
2023/06/26 00:59:43;;;;;;;1.67;0.45;;;17.60;99.90;;;;;;4995312;28;20278;-75
2023/06/26 01:02:19;;;;;;;2.05;0.52;;;17.60;99.90;;;;;;5006635;28;20195;-75
2023/06/26 01:04:51;;;;;;;1.75;0.40;;;17.70;99.90;;;;;;5013771;28;20198;-74
2023/06/26 01:07:23;;;;;;;2.30;0.40;;;17.80;99.90;;;;;;5013702;28;20217;-75
2023/06/26 01:09:56;;;;;;;1.05;0.40;;;17.90;99.90;;;;;;5011983;28;20203;-79
2023/06/26 01:12:28;;;;;;;1.70;0.50;;;17.90;99.90;;;;;;5012264;28;20206;-77
2023/06/26 01:15:02;;;;;;;1.95;0.50;;;18.00;99.90;;;;;;5014556;28;20693;-78
2023/06/26 01:17:33;;;;;;;1.17;0.40;;;18.00;99.90;;;;;;5014888;28;20277;-80
2023/06/26 01:20:07;;;;;;;1.60;0.50;;;18.10;99.90;;;;;;5012760;28;20322;-79
2023/06/26 01:22:46;;;;;;;1.75;0.50;;;18.10;99.90;;;;;;5014592;28;20238;-78
2023/06/26 01:25:25;;;;;;;1.90;0.52;;;18.20;99.90;;;;;;5014330;28;20199;-76
2023/06/26 01:27:58;;;;;;;1.55;0.40;;;18.30;99.90;;;;;;4994690;28;20623;-78
2023/06/26 01:30:30;;;;;;;1.38;0.40;;;18.40;99.90;;;;;;5013400;28;20198;-77
2023/06/26 01:33:01;;;;;;;2.35;0.50;;;18.40;99.90;;;;;;5014138;28;20293;-78
2023/06/26 01:35:32;;;;;;;0.77;0.50;;;18.50;99.90;;;;;;5013468;28;20629;-80
2023/06/26 01:38:16;;;;;;;2.15;0.40;;;18.60;99.90;;;;;;5014647;28;20229;-78
2023/06/26 01:40:47;;;;;;;3.78;0.40;;;18.60;99.90;;;;;;5014355;28;20249;-77
2023/06/26 01:43:27;;;;;;;2.15;0.50;;;18.70;99.90;;;;;;5014236;28;20193;-76
2023/06/26 01:46:01;;;;;;;4.75;0.43;;;18.70;99.90;;;;;;5014025;28;20199;-78
2023/06/26 01:48:37;;;;;;;2.00;0.40;;;18.80;99.90;;;;;;5013832;28;20554;-78
2023/06/26 01:51:10;;;;;;;2.42;0.45;;;18.90;99.90;;;;;;5011524;28;20190;-82
2023/06/26 01:53:47;;;;;;;2.47;0.32;;;19.00;99.90;;;;;;5014002;28;20227;-77
2023/06/26 01:56:21;;;;;;;0.80;0.50;;;19.00;99.90;;;;;;5013985;28;20190;-76
2023/06/26 01:58:54;;;;;;;2.78;0.55;;;19.00;99.90;;;;;;5012731;28;20201;-83
2023/06/26 02:01:25;;;;;;;3.83;0.70;;;19.10;99.90;;;;;;5013944;28;20658;-79
2023/06/26 02:03:56;;;;;;;1.00;0.40;;;19.20;99.90;;;;;;5013516;28;20191;-77
2023/06/26 02:06:27;;;;;;;4.05;0.63;;;19.10;99.90;;;;;;5013970;28;20230;-77
2023/06/26 02:08:58;;;;;;;1.35;0.32;;;19.10;99.90;;;;;;5013669;28;20187;-77
2023/06/26 02:11:29;;;;;;;1.73;0.50;;;19.10;99.90;;;;;;5013873;28;20198;-75
2023/06/26 02:14:02;;;;;;;3.00;0.82;;;19.20;99.90;;;;;;5013713;28;20190;-74
2023/06/26 02:16:33;;;;;;;2.42;0.75;;;19.20;99.90;;;;;;5013636;28;20266;-77
2023/06/26 02:19:04;;;;;;;1.23;0.40;;;19.20;99.90;;;;;;5013527;28;20241;-81
2023/06/26 02:21:35;;;;;;;1.88;0.50;;;19.20;99.90;;;;;;5013470;28;20719;-77
2023/06/26 02:24:06;;;;;;;2.28;0.40;;;19.30;99.90;;;;;;5013172;28;20193;-75
2023/06/26 02:26:37;;;;;;;0.82;0.50;;;19.20;99.90;;;;;;5013547;28;20218;-77
2023/06/26 02:29:10;;;;;;;1.33;0.47;;;19.20;99.90;;;;;;5013886;28;20733;-76
2023/06/26 02:31:40;;;;;;;3.30;0.50;;;19.20;99.90;;;;;;5013243;28;20195;-76
2023/06/26 02:34:11;;;;;;;2.40;0.40;;;19.10;99.90;;;;;;5013490;28;20191;-80
2023/06/26 02:36:42;;;;;;;1.65;0.43;;;19.10;99.90;;;;;;5013714;28;20198;-84
2023/06/26 02:39:14;;;;;;;2.10;0.90;;;19.10;99.90;;;;;;5013444;28;20555;-81
2023/06/26 02:41:45;;;;;;;3.53;0.55;;;19.10;99.90;;;;;;5013449;28;20191;-80
2023/06/26 02:44:17;;;;;;;0.63;0.35;;;19.10;99.90;;;;;;5013426;28;20195;-83
2023/06/26 02:46:48;;;;;;;0.40;0.20;;;19.20;99.90;;;;;;5013062;28;20225;-81
2023/06/26 02:49:19;;;;;;;9.13;0.90;;;19.30;99.90;;;;;;5013483;28;20191;-83
2023/06/26 02:51:50;;;;;;;1.55;0.40;;;19.20;99.90;;;;;;5013727;28;20214;-82
2023/06/26 02:54:21;;;;;;;1.42;0.60;;;19.30;99.90;;;;;;5013303;28;20229;-82
2023/06/26 02:56:51;;;;;;;1.05;0.40;;;19.30;99.90;;;;;;5013317;28;20238;-83
2023/06/26 02:59:24;;;;;;;1.88;0.40;;;19.30;99.90;;;;;;5013370;28;20191;-80
2023/06/26 03:01:55;;;;;;;1.05;0.28;;;19.20;99.90;;;;;;5013110;28;20199;-78
2023/06/26 03:04:26;;;;;;;1.85;0.40;;;19.30;99.90;;;;;;5013309;28;20191;-82
2023/06/26 03:06:57;;;;;;;1.92;0.50;;;19.30;99.90;;;;;;5013079;28;20250;-79
2023/06/26 03:09:27;;;;;;;1.95;0.35;;;19.30;99.90;;;;;;5013180;28;20199;-82
2023/06/26 03:11:58;;;;;;;0.50;0.30;;;19.40;99.90;;;;;;5013105;28;20278;-82
2023/06/26 03:14:31;;;;;;;1.38;0.38;;;19.40;99.90;;;;;;5013032;28;20195;-78
2023/06/26 03:17:03;;;;;;;0.85;0.30;;;19.50;99.90;;;;;;5012922;28;20191;-82
2023/06/26 03:19:34;;;;;;;1.58;0.30;;;19.50;99.90;;;;;;5013350;28;20562;-81
2023/06/26 03:22:05;;;;;;;0.82;0.30;;;19.40;99.90;;;;;;5013156;28;20209;-82
2023/06/26 03:24:36;;;;;;;0.52;0.32;;;19.20;99.90;;;;;;5013165;28;20635;-81
2023/06/26 03:27:09;;;;;;;1.35;0.30;;;19.30;99.90;;;;;;5012918;28;20219;-84
2023/06/26 03:29:42;;;;;;;0.88;0.40;;;19.20;99.90;;;;;;5012730;28;20203;-81
2023/06/26 03:32:13;;;;;;;0.50;0.22;;;19.10;99.90;;;;;;5012937;28;20187;-78
2023/06/26 03:34:44;;;;;;;1.60;0.40;;;19.30;99.90;;;;;;5014966;28;20572;-81
2023/06/26 03:37:15;;;;;;;1.50;0.30;;;19.40;99.90;;;;;;5016880;28;20241;-81
2023/06/26 03:39:45;;;;;;;1.45;0.30;;;19.40;99.90;;;;;;5016538;28;20199;-86
2023/06/26 03:42:16;;;;;;;0.65;0.30;;;19.40;99.90;;;;;;5016610;28;20191;-83
2023/06/26 03:44:49;;;;;;;2.15;0.35;;;19.40;99.90;;;;;;5016273;28;20187;-86
2023/06/26 03:47:20;;;;;;;1.08;0.30;;;19.30;99.90;;;;;;5016297;28;20230;-83
2023/06/26 03:49:50;;;;;;;1.55;0.40;;;19.20;99.90;;;;;;5016332;28;20195;-81
2023/06/26 03:52:21;;;;;;;2.60;0.40;;;19.30;99.90;;;;;;5016549;28;20195;-80
2023/06/26 03:54:52;;;;;;;2.35;0.43;;;19.30;99.90;;;;;;5019394;28;20187;-82
2023/06/26 03:57:23;;;;;;;2.75;0.52;;;19.30;99.90;;;;;;5017211;28;20650;-83
2023/06/26 03:59:56;;;;;;;0.73;0.30;;;19.30;99.90;;;;;;5016382;28;20697;-77
2023/06/26 04:02:27;;;;;;;2.33;0.57;;;19.30;99.90;;;;;;5016094;28;20187;-76
2023/06/26 04:04:58;;;;;;;2.47;0.43;;;19.30;99.90;;;;;;5016045;28;20198;-75
2023/06/26 04:07:28;;;;;;;2.70;0.50;;;19.30;99.90;;;;;;5015791;28;20686;-75
2023/06/26 04:09:59;;;;;;;0.63;0.30;;;19.30;99.90;;;;;;5015947;28;20195;-77
2023/06/26 04:12:30;;;;;;;0.65;0.32;;;19.40;99.90;;;;;;5015898;28;20197;-76
2023/06/26 04:15:03;;;;;;;0.73;0.30;;;19.40;99.90;;;;;;5015558;28;20586;-75
2023/06/26 04:17:34;;;;;;;1.02;0.50;;;19.40;99.90;;;;;;5015753;28;20297;-76
2023/06/26 04:20:06;;;;;;;3.10;0.43;;;19.20;99.90;;;;;;5015912;28;20698;-76
2023/06/26 04:22:37;;;;;;;2.05;0.32;;;19.20;99.90;;;;;;5015770;28;20557;-77
2023/06/26 04:25:09;;;;;;;1.17;0.40;;;18.90;99.90;;;;;;5015665;28;20721;-76
2023/06/26 04:27:39;;;;;;;0.90;0.40;;;19.10;99.90;;;;;;5015294;28;20218;-75
2023/06/26 04:30:14;;;;;;;0.82;0.50;;;19.10;99.90;;;;;;5015906;28;20195;-76
2023/06/26 04:32:44;;;;;;;1.05;0.30;;;19.10;99.90;;;;;;5015578;28;20313;-76
2023/06/26 04:35:15;;;;;;;1.77;0.35;;;19.20;99.90;;;;;;5015487;28;20194;-75
2023/06/26 04:37:46;;;;;;;1.67;0.50;;;19.20;99.90;;;;;;5015344;28;20195;-76
2023/06/26 04:40:17;;;;;;;3.40;0.60;;;19.20;99.90;;;;;;5015345;28;20195;-75
2023/06/26 04:42:48;;;;;;;1.63;0.40;;;19.20;99.90;;;;;;5015222;28;20198;-75
2023/06/26 04:45:20;;;;;;;1.75;0.32;;;19.20;99.90;;;;;;5014937;28;20195;-74
2023/06/26 04:47:51;;;;;;;3.45;0.60;;;19.10;99.90;;;;;;5015145;28;20700;-76
2023/06/26 04:50:22;;;;;;;3.03;0.55;;;19.00;99.90;;;;;;5015020;28;20201;-80
2023/06/26 04:52:53;;;;;;;3.30;0.50;;;18.90;99.90;;;;;;5015101;28;20191;-80
2023/06/26 04:55:23;;;;;;;4.78;0.50;;;18.90;99.90;;;;;;5014943;28;20190;-82
2023/06/26 04:57:54;;;;;;;2.13;0.63;;;18.80;99.90;;;;;;5014745;28;20195;-82
2023/06/26 05:00:27;;;;;;;2.72;0.40;;;18.80;99.90;;;;;;5014964;28;20191;-84
2023/06/26 05:03:00;;;;;;;2.42;0.55;;;18.70;99.90;;;;;;5015000;28;20198;-81
2023/06/26 05:05:31;;;;;;;1.15;0.20;;;18.70;99.90;;;;;;5014902;28;20190;-82
2023/06/26 05:08:15;;;;;;;2.13;0.50;;;18.60;99.90;;;;;;5015161;28;20233;-80
2023/06/26 05:10:46;;;;;;;1.48;0.30;;;18.50;99.90;;;;;;5015052;28;20558;-80
2023/06/26 05:13:18;;;;;;;0.55;0.32;;;18.60;99.90;;;;;;5014623;28;20187;-85
2023/06/26 05:15:53;;;;;;;1.30;0.40;;;18.60;99.90;;;;;;5014554;28;20226;-82
2023/06/26 05:18:24;;;;;;;3.05;0.77;;;18.60;99.90;;;;;;5014627;28;20190;-82
2023/06/26 05:20:55;;;;;;;2.60;0.50;;;18.60;99.90;;;;;;5014378;28;20728;-81
2023/06/26 05:23:29;;;;;;;2.25;0.40;;;18.50;99.90;;;;;;5014597;28;20194;-84
2023/06/26 05:26:00;;;;;;;5.85;0.40;;;18.50;99.90;;;;;;5014221;28;20194;-85
2023/06/26 05:28:32;;;;;;;1.77;0.43;;;18.40;99.90;;;;;;5014421;28;20717;-83
2023/06/26 05:31:06;;;;;;;1.42;0.30;;;18.30;99.90;;;;;;5014411;28;20195;-85
2023/06/26 05:33:39;;;;;;;2.33;0.50;;;18.20;99.90;;;;;;5014539;28;20720;-85
2023/06/26 05:36:11;;;;;;;1.35;0.50;;;18.20;99.90;;;;;;5014372;28;20194;-87
2023/06/26 05:38:43;;;;;;;1.98;0.40;;;18.10;99.90;;;;;;5014396;28;20195;-81
2023/06/26 05:41:14;;;;;;;1.08;0.40;;;18.10;99.90;;;;;;5013968;28;20290;-82
2023/06/26 05:43:45;;;;;;;2.40;0.50;;;18.10;99.90;;;;;;5014250;28;20198;-83
2023/06/26 05:46:17;;;;;;;0.77;0.40;;;18.00;99.90;;;;;;5014206;28;20187;-83
2023/06/26 05:48:49;;;;;;;2.92;0.40;;;18.00;99.90;;;;;;5014185;28;20223;-81
2023/06/26 05:51:20;;;;;;;1.17;0.30;;;17.90;99.90;;;;;;5014166;28;20238;-81
2023/06/26 05:53:51;;;;;;;3.90;0.40;;;18.00;99.90;;;;;;5014063;28;20187;-80
2023/06/26 05:56:22;;;;;;;4.15;0.60;;;17.90;99.90;;;;;;5013835;28;20205;-83
2023/06/26 05:58:54;;;;;;;1.85;0.40;;;17.80;99.90;;;;;;5013272;28;20191;-81
2023/06/26 06:01:26;;;;;;;2.15;0.30;;;17.80;99.90;;;;;;5013944;28;20195;-82
2023/06/26 06:03:57;;;;;;;1.45;0.50;;;17.70;99.90;;;;;;5014020;28;20197;-80
2023/06/26 06:06:28;;;;;;;1.92;0.40;;;17.70;99.90;;;;;;5013970;28;20191;-85
2023/06/26 06:08:58;;;;;;;3.13;0.32;;;17.60;99.90;;;;;;5014031;28;20592;-83
2023/06/26 06:11:29;;;;;;;2.42;0.50;;;17.60;99.90;;;;;;5013726;28;20218;-80
2023/06/26 06:14:00;;;;;;;2.65;0.40;;;17.50;99.90;;;;;;5013985;28;20195;-76
2023/06/26 06:16:33;;;;;;;0.93;0.40;;;17.50;99.90;;;;;;5013916;28;20226;-78
2023/06/26 06:19:06;;;;;;;0.85;0.32;;;17.50;99.90;;;;;;5013744;28;20193;-77
2023/06/26 06:21:37;;;;;;;1.35;0.50;;;17.40;99.90;;;;;;5013623;28;20695;-79
2023/06/26 06:24:09;;;;;;;3.08;0.50;;;17.30;99.90;;;;;;5013582;28;20257;-79
2023/06/26 06:26:40;;;;;;;2.72;0.50;;;17.30;99.90;;;;;;5014228;28;20552;-77
2023/06/26 06:29:10;;;;;;;2.40;0.50;;;17.30;99.90;;;;;;5013585;28;20710;-78
2023/06/26 06:31:43;;;;;;;1.38;0.45;;;17.20;99.90;;;;;;5013639;28;20191;-80
2023/06/26 06:34:14;;;;;;;2.45;0.63;;;17.20;99.90;;;;;;5013990;28;20227;-77
2023/06/26 06:36:45;;;;;;;0.50;0.50;;;17.20;99.90;;;;;;5013800;28;20218;-77
2023/06/26 06:39:16;;;;;;;1.02;0.47;;;17.10;99.90;;;;;;5013394;28;20201;-80
2023/06/26 06:41:46;;;;;;;3.45;0.60;;;17.00;99.90;;;;;;5013917;28;20195;-77
2023/06/26 06:44:17;;;;;;;1.40;0.38;;;17.00;99.90;;;;;;5013632;28;20635;-76
2023/06/26 06:46:50;;;;;;;2.25;0.50;;;16.90;99.90;;;;;;5013428;28;20529;-78
2023/06/26 06:49:21;;;;;;;2.65;0.90;;;16.80;99.90;;;;;;5013365;28;20219;-77
2023/06/26 06:51:52;;;;;;;3.58;0.98;;;16.80;99.90;;;;;;5013360;28;20199;-78
2023/06/26 06:54:23;;;;;;;0.80;0.50;;;16.70;99.90;;;;;;5013288;28;20201;-77
2023/06/26 06:56:54;;;;;;;6.13;0.63;;;16.70;99.90;;;;;;5013367;28;20199;-79
2023/06/26 06:59:24;;;;;;;1.13;0.40;;;16.70;99.90;;;;;;5013403;28;20195;-77
2023/06/26 07:01:57;;;;;;;1.73;0.38;;;16.60;99.90;;;;;;5013419;28;20197;-78
2023/06/26 07:04:28;;;;;;;1.55;0.40;;;16.60;99.90;;;;;;5014417;28;20202;-79
2023/06/26 07:06:59;;;;;;;0.85;0.40;;;16.60;99.90;;;;;;5013498;28;20213;-81
2023/06/26 07:09:29;;;;;;;1.70;0.60;;;16.60;99.90;;;;;;5015597;28;20661;-81
2023/06/26 07:12:00;;;;;;;1.30;0.52;;;16.50;99.90;;;;;;5017570;28;20639;-81
2023/06/26 07:14:31;;;;;;;1.52;0.47;;;16.50;99.90;;;;;;5017735;28;20194;-78
2023/06/26 07:17:03;;;;;;;1.88;0.50;;;16.40;99.90;;;;;;5017212;28;20195;-80
2023/06/26 07:19:34;;;;;;;2.05;0.40;;;16.40;99.90;;;;;;5017078;28;20199;-80
2023/06/26 07:22:05;;;;;;;1.30;0.40;;;16.30;99.90;;;;;;5016885;28;20197;-78
2023/06/26 07:24:36;;;;;;;1.92;0.60;;;16.30;99.90;;;;;;5017119;28;20202;-81
2023/06/26 07:27:07;;;;;;;3.50;0.50;;;16.30;99.90;;;;;;5017172;28;20187;-79
2023/06/26 07:29:37;;;;;;;0.75;0.40;;;16.30;99.90;;;;;;5017310;28;20218;-79
2023/06/26 07:32:11;;;;;;;1.08;0.50;;;16.30;99.90;;;;;;5018639;28;20197;-80
2023/06/26 07:34:41;;;;;;;1.70;0.40;;;16.20;99.90;;;;;;5017458;28;20198;-78
2023/06/26 07:37:12;;;;;;;1.15;0.40;;;16.20;99.90;;;;;;5018183;28;20564;-79
2023/06/26 07:39:43;;;;;;;2.97;0.50;;;16.20;99.90;;;;;;5017201;28;20201;-78
2023/06/26 07:42:14;;;;;;;2.50;0.40;;;16.20;99.90;;;;;;5016774;28;20254;-80
2023/06/26 07:44:45;;;;;;;2.17;0.40;;;16.20;99.90;;;;;;5017195;28;20559;-79
2023/06/26 07:47:18;;;;;;;1.90;0.70;;;16.10;99.90;;;;;;5018494;28;20191;-79
2023/06/26 07:49:49;;;;;;;1.08;0.50;;;16.10;99.90;;;;;;5016652;28;20698;-80
2023/06/26 07:52:20;;;;;;;2.15;0.70;;;16.00;99.90;;;;;;5016401;28;20635;-81
2023/06/26 07:54:51;;;;;;;0.57;0.45;;;16.00;99.90;;;;;;5016668;28;20245;-77
2023/06/26 07:57:22;;;;;;;1.25;0.45;;;16.00;99.90;;;;;;5016514;28;20194;-79
2023/06/26 07:59:53;;;;;;;1.17;0.50;;;16.00;99.90;;;;;;5016549;28;20593;-78
2023/06/26 08:02:25;;;;;;;1.98;0.40;;;16.00;99.90;;;;;;5016440;28;20195;-78
2023/06/26 08:04:56;;;;;;;0.90;0.57;;;16.00;99.90;;;;;;5016248;28;20223;-77
2023/06/26 08:07:27;;;;;;;1.80;0.55;;;16.00;99.90;;;;;;5015979;28;20194;-82
2023/06/26 08:09:58;;;;;;;1.40;0.50;;;16.00;99.90;;;;;;5016008;28;20214;-78
2023/06/26 08:12:28;;;;;;;2.05;0.60;;;15.90;99.90;;;;;;5016281;28;20195;-78
2023/06/26 08:15:00;;;;;;;2.28;0.80;;;15.90;99.90;;;;;;5015993;28;20229;-78
2023/06/26 08:17:33;;;;;;;3.70;0.50;;;15.90;99.90;;;;;;5016113;28;20639;-79
2023/06/26 08:20:04;;;;;;;1.77;0.50;;;15.90;99.90;;;;;;5015170;28;20240;-78
2023/06/26 08:22:35;;;;;;;1.75;0.60;;;15.90;99.90;;;;;;5016037;28;20555;-81
2023/06/26 08:25:07;;;;;;;2.70;0.60;;;15.90;99.90;;;;;;5015987;28;20187;-80
2023/06/26 08:27:37;;;;;;;2.30;0.70;;;15.80;99.90;;;;;;5014488;28;20205;-80
2023/06/26 08:30:09;;;;;;;2.42;0.60;;;15.80;99.90;;;;;;5014283;28;20223;-81
2023/06/26 08:32:42;;;;;;;2.75;0.65;;;15.80;99.90;;;;;;5001877;28;20223;-79
2023/06/26 08:35:12;;;;;;;1.25;0.63;;;15.80;99.90;;;;;;5003289;28;20563;-79
2023/06/26 08:37:43;;;;;;;2.30;0.70;;;15.80;99.90;;;;;;5008468;28;20199;-77
2023/06/26 08:40:14;;;;;;;1.90;0.63;;;15.70;99.90;;;;;;5001048;28;20203;-81
2023/06/26 08:42:45;;;;;;;2.45;0.77;;;15.70;99.90;;;;;;5012073;28;20213;-79
2023/06/26 08:45:16;;;;;;;2.22;0.70;;;15.70;99.90;;;;;;5013440;28;20199;-80
2023/06/26 08:47:50;;;;;;;5.70;0.93;;;15.60;99.90;;;;;;5010926;28;20654;-81
2023/06/26 08:50:25;;;;;;;1.98;0.70;;;15.60;99.90;;;;;;5014135;28;20279;-81
2023/06/26 08:53:05;;;;;;;2.97;0.80;;;15.50;99.90;;;;;;5013376;28;20198;-80
2023/06/26 08:55:38;;;;;;;2.78;1.02;;;15.50;99.90;;;;;;5012568;28;20209;-79
2023/06/26 08:58:09;;;;;;;4.45;1.10;;;15.40;99.90;;;;;;5018162;28;20209;-79
2023/06/26 09:00:40;;;;;;;6.93;1.00;;;15.30;99.90;;;;;;5017624;28;20205;-79
2023/06/26 09:03:15;;;;;;;1.55;0.80;;;15.30;99.90;;;;;;5014343;28;20203;-80
2023/06/26 09:05:46;;;;;;;1.73;0.70;;;15.20;99.90;;;;;;5014756;28;20619;-78
2023/06/26 09:08:17;;;;;;;2.72;0.90;;;15.20;99.90;;;;;;5013688;28;20278;-80
2023/06/26 09:10:48;;;;;;;1.63;1.00;;;15.20;99.90;;;;;;5014551;28;20603;-80
2023/06/26 09:13:20;;;;;;;3.00;1.02;;;15.20;99.90;;;;;;5014532;28;20278;-80
2023/06/26 09:15:51;;;;;;;2.33;1.08;;;15.20;99.90;;;;;;5021022;28;20223;-79
2023/06/26 09:18:25;;;;;;;2.15;0.90;;;15.20;99.90;;;;;;5009481;28;20207;-79
2023/06/26 09:20:57;;;;;;;2.10;0.88;;;15.10;99.90;;;;;;5012604;28;20231;-78
2023/06/26 09:23:28;;;;;;;1.55;0.75;;;15.10;99.90;;;;;;5011308;28;20195;-78
2023/06/26 09:25:58;;;;;;;1.90;0.90;;;15.10;99.90;;;;;;5014189;28;20282;-79
2023/06/26 09:28:33;;;;;;;1.95;0.95;;;15.10;99.90;;;;;;5011194;28;20289;-78
2023/06/26 09:31:07;;;;;;;1.42;0.90;;;15.10;99.90;;;;;;5012782;28;20260;-82
2023/06/26 09:33:42;;;;;;;2.20;1.00;;;15.00;99.90;;;;;;5011331;28;20198;-79
2023/06/26 09:36:23;;;;;;;2.25;1.10;;;15.00;99.90;;;;;;5010381;28;20576;-80
2023/06/26 09:38:54;;;;;;;4.10;0.90;;;14.90;99.90;;;;;;5008714;28;20249;-77
2023/06/26 09:41:25;;;;;;;3.10;0.90;;;14.90;99.90;;;;;;5012351;28;20199;-80
2023/06/26 09:43:57;;;;;;;2.80;0.90;;;14.90;99.90;;;;;;5011967;28;20286;-78
2023/06/26 09:46:31;;;;;;;3.08;0.90;;;14.90;99.90;;;;;;5012201;28;20253;-78
2023/06/26 09:49:09;;;;;;;2.55;0.80;;;14.90;99.90;;;;;;5009325;28;20271;-79
2023/06/26 09:51:41;;;;;;;2.72;0.88;;;14.90;99.90;;;;;;5011228;28;20206;-79
2023/06/26 09:54:12;;;;;;;1.33;0.60;;;14.90;99.90;;;;;;5010153;28;20285;-80
2023/06/26 09:56:43;;;;;;;1.40;0.65;;;15.00;99.90;;;;;;5011276;28;20199;-79
2023/06/26 09:59:14;;;;;;;2.00;0.70;;;15.10;99.90;;;;;;5011827;28;20286;-79
2023/06/26 10:01:49;;;;;;;1.30;0.43;;;15.10;99.90;;;;;;5010736;28;20587;-81
2023/06/26 10:04:22;;;;;;;1.50;0.70;;;15.10;99.90;;;;;;5000054;28;20224;-80
2023/06/26 10:06:56;;;;;;;1.55;0.50;;;15.10;99.90;;;;;;5006366;28;20205;-79
2023/06/26 10:09:28;;;;;;;3.20;0.70;;;15.00;99.90;;;;;;5012121;28;20225;-79
2023/06/26 10:12:02;;;;;;;1.83;0.60;;;15.00;99.90;;;;;;5010802;28;20202;-80
2023/06/26 10:14:36;;;;;;;0.85;0.52;;;15.00;99.90;;;;;;5011173;28;20701;-78
2023/06/26 10:17:13;;;;;;;2.50;0.60;;;15.00;99.90;;;;;;5008142;28;20248;-78
2023/06/26 10:19:47;;;;;;;2.55;0.70;;;15.00;99.90;;;;;;5010271;28;20697;-79
2023/06/26 10:22:19;;;;;;;3.10;0.70;;;15.00;99.90;;;;;;5012544;28;20581;-79
2023/06/26 10:24:52;;;;;;;1.08;0.52;;;15.00;99.90;;;;;;5010425;28;20203;-78
2023/06/26 10:27:25;;;;;;;2.70;0.63;;;15.00;99.90;;;;;;5010372;28;20728;-77
2023/06/26 10:29:58;;;;;;;1.02;0.60;;;15.00;99.90;;;;;;5013338;28;20718;-79
2023/06/26 10:32:31;;;;;;;3.60;0.70;;;14.90;99.90;;;;;;5012975;28;20735;-79
2023/06/26 10:35:04;;;;;;;1.33;0.65;;;14.90;99.90;;;;;;5011313;28;20663;-78
2023/06/26 10:37:49;;;;;;;2.35;0.60;;;14.80;99.90;;;;;;5012064;28;20200;-80
2023/06/26 10:40:27;;;;;;;2.30;0.73;;;14.80;99.90;;;;;;4997933;28;20757;-80
2023/06/26 10:43:11;;;;;;;1.23;0.60;;;14.80;99.90;;;;;;5009501;28;20199;-79
2023/06/26 10:45:52;;;;;;;0.65;0.50;;;14.70;99.90;;;;;;5015045;28;20195;-78
2023/06/26 10:48:22;;;;;;;1.45;0.60;;;14.70;99.90;;;;;;5016381;28;20281;-79
2023/06/26 10:50:58;;;;;;;2.45;0.80;;;14.60;99.90;;;;;;5014697;28;20713;-80
2023/06/26 10:53:34;;;;;;;1.73;0.70;;;14.60;99.90;;;;;;5016078;28;20194;-79
2023/06/26 10:56:06;;;;;;;2.90;0.77;;;14.60;99.90;;;;;;5022836;28;20194;-79
2023/06/26 10:58:44;;;;;;;2.58;0.70;;;14.50;99.90;;;;;;5021641;28;20230;-80
2023/06/26 11:01:25;;;;;;;2.25;0.70;;;14.50;99.90;;;;;;5013817;28;20194;-79
2023/06/26 11:04:07;;;;;;;1.90;1.00;;;14.40;99.90;;;;;;5014945;28;20198;-79
2023/06/26 11:06:41;;;;;;;2.92;1.45;;;14.30;99.90;;;;;;5010488;28;20280;-79
2023/06/26 11:09:13;;;;;;;2.15;1.60;;;14.30;99.90;;;;;;5011854;28;20207;-80
2023/06/26 11:12:09;;;;;;;3.20;1.35;;;14.20;99.90;;;;;;5014556;28;20302;-80
2023/06/26 11:14:40;;;;;;;1.52;1.00;;;14.10;99.90;;;;;;5010257;28;20230;-79
2023/06/26 11:17:14;;;;;;;2.92;1.33;;;14.10;99.90;;;;;;5006617;28;20194;-79
2023/06/26 11:19:48;;;;;;;2.58;1.20;;;14.00;99.90;;;;;;5012443;28;20722;-79
2023/06/26 11:22:22;;;;;;;2.05;1.00;;;13.90;99.90;;;;;;5011220;28;20201;-80
2023/06/26 11:24:55;;;;;;;3.13;1.40;;;13.80;99.90;;;;;;5014325;28;20681;-79
2023/06/26 11:27:27;;;;;;;2.00;0.95;;;13.70;99.90;;;;;;5014973;28;20199;-79
2023/06/26 11:29:58;;;;;;;2.53;1.20;;;13.60;99.90;;;;;;5009222;28;20826;-80
2023/06/26 11:32:32;;;;;;;2.75;1.00;;;13.60;99.90;;;;;;5012040;28;20204;-78
2023/06/26 11:35:04;;;;;;;1.92;0.90;;;13.60;99.90;;;;;;5013073;28;20207;-79
2023/06/26 11:37:37;;;;;;;2.05;1.00;;;13.60;99.90;;;;;;5024682;28;20198;-79
2023/06/26 11:40:21;;;;;;;4.03;1.08;;;13.60;99.90;;;;;;5012745;28;20203;-78
2023/06/26 11:42:52;;;;;;;2.90;1.00;;;13.60;99.90;;;;;;5014542;28;20254;-78
2023/06/26 11:45:23;;;;;;;1.85;0.90;;;13.60;99.90;;;;;;5016223;28;20198;-78
2023/06/26 11:47:56;;;;;;;3.83;1.05;;;13.60;99.90;;;;;;5016217;28;20210;-78
2023/06/26 11:50:28;;;;;;;2.35;0.95;;;13.70;99.90;;;;;;5011641;28;20221;-79
2023/06/26 11:53:01;;;;;;;1.88;0.80;;;13.70;99.90;;;;;;5014202;28;20195;-79
2023/06/26 11:55:44;;;;;;;3.17;0.93;;;13.70;99.90;;;;;;5014574;28;20195;-79
2023/06/26 11:58:17;;;;;;;3.13;1.00;;;13.70;99.90;;;;;;5015876;28;20202;-80
2023/06/26 12:00:50;;;;;;;2.28;0.93;;;13.70;99.90;;;;;;5016000;28;20675;-80
2023/06/26 12:03:21;;;;;;;1.98;0.90;;;13.70;99.90;;;;;;5013752;28;20205;-80
2023/06/26 12:05:52;;;;;;;5.15;0.90;;;13.70;99.90;;;;;;5014853;28;20195;-80
2023/06/26 12:08:25;;;;;;;3.22;0.80;;;13.70;99.90;;;;;;5013796;28;20200;-80
2023/06/26 12:10:56;;;;;;;1.38;0.60;;;13.70;99.90;;;;;;5014207;28;20219;-80
2023/06/26 12:13:27;;;;;;;1.33;0.73;;;13.70;99.90;;;;;;5014678;28;20201;-80
2023/06/26 12:15:58;;;;;;;2.78;0.70;;;13.80;99.90;;;;;;5013504;28;20313;-78
2023/06/26 12:18:35;;;;;;;2.65;0.60;;;13.80;99.90;;;;;;5015564;28;20201;-79
2023/06/26 12:21:06;;;;;;;3.15;0.80;;;13.80;99.90;;;;;;5015326;28;20238;-80
2023/06/26 12:23:43;;;;;;;2.17;0.70;;;13.80;99.90;;;;;;5015302;28;20195;-79
2023/06/26 12:26:23;;;;;;;2.00;0.80;;;13.80;99.90;;;;;;5008596;28;20197;-81
2023/06/26 12:28:54;;;;;;;3.80;0.80;;;13.80;99.90;;;;;;5015528;28;20198;-80
2023/06/26 12:31:25;;;;;;;2.53;0.65;;;13.80;99.90;;;;;;5012235;28;20218;-80
2023/06/26 12:33:56;;;;;;;2.47;0.77;;;13.80;99.90;;;;;;5013929;28;20231;-79
2023/06/26 12:36:27;;;;;;;1.42;0.65;;;13.80;99.90;;;;;;5014547;28;20769;-80
2023/06/26 12:39:03;;;;;;;1.67;0.60;;;13.70;99.90;;;;;;5015124;28;20294;-78
2023/06/26 12:41:34;;;;;;;4.13;0.75;;;13.70;99.90;;;;;;5014859;28;20210;-79
2023/06/26 12:44:05;;;;;;;1.63;0.57;;;13.70;99.90;;;;;;5015310;28;20205;-79
2023/06/26 12:46:38;;;;;;;3.55;0.73;;;13.70;99.90;;;;;;5013823;28;20658;-78
2023/06/26 12:49:09;;;;;;;2.40;0.70;;;13.70;99.90;;;;;;5013785;28;20201;-79
2023/06/26 12:51:40;;;;;;;2.08;0.80;;;13.70;99.90;;;;;;5014907;28;20225;-80
2023/06/26 12:54:13;;;;;;;3.08;0.85;;;13.70;99.90;;;;;;5012260;28;20282;-79
2023/06/26 12:56:44;;;;;;;1.98;0.75;;;13.70;99.90;;;;;;5010292;28;20206;-79
2023/06/26 12:59:14;;;;;;;2.45;0.70;;;13.70;99.90;;;;;;5012588;28;20203;-79
2023/06/26 13:01:45;;;;;;;3.15;0.65;;;13.70;99.90;;;;;;5013526;28;20203;-79
2023/06/26 13:04:16;;;;;;;4.30;0.73;;;13.60;99.90;;;;;;5008893;28;20202;-79
2023/06/26 13:06:47;;;;;;;1.30;0.70;;;13.60;99.90;;;;;;5013346;28;20203;-78
2023/06/26 13:09:19;;;;;;;1.90;0.68;;;13.60;99.90;;;;;;5010926;28;20204;-79
2023/06/26 13:11:50;;;;;;;1.23;0.68;;;13.60;99.90;;;;;;5000604;28;20219;-78
2023/06/26 13:14:21;;;;;;;2.22;0.60;;;13.50;99.90;;;;;;5007832;28;20219;-78